createdAt,value
2022-10-20T00:02:02.915Z,6.68
2022-10-20T00:04:30.694Z,5.32
2022-10-20T00:06:58.378Z,9.57
2022-10-20T00:09:26.122Z,7.05
2022-10-20T00:11:55.185Z,4.60
2022-10-20T00:14:22.883Z,5.35
2022-10-20T00:16:50.632Z,6.60
2022-10-20T00:19:18.504Z,5.55
2022-10-20T00:21:46.209Z,8.65
2022-10-20T00:24:13.943Z,6.85
2022-10-20T00:26:41.712Z,5.65
2022-10-20T00:29:11.050Z,7.13
2022-10-20T00:31:38.801Z,6.20
2022-10-20T00:34:06.459Z,6.13
2022-10-20T00:36:34.160Z,3.95
2022-10-20T00:39:04.632Z,6.47
2022-10-20T00:41:33.438Z,5.60
2022-10-20T00:44:02.926Z,4.80
2022-10-20T00:46:38.342Z,5.13
2022-10-20T00:49:13.706Z,8.80
2022-10-20T00:51:41.536Z,4.93
2022-10-20T00:54:12.537Z,5.72
2022-10-20T00:56:44.128Z,4.07
2022-10-20T00:59:15.374Z,6.55
2022-10-20T01:04:19.960Z,4.72
2022-10-20T01:06:47.693Z,6.50
2022-10-20T01:09:15.517Z,6.40
2022-10-20T01:11:50.349Z,5.50
2022-10-20T01:14:36.206Z,4.00
2022-10-20T01:17:14.640Z,5.00
2022-10-20T01:20:07.595Z,4.72
2022-10-20T01:25:57.607Z,4.75
2022-10-20T01:28:32.405Z,4.88
2022-10-20T01:31:05.094Z,4.85
2022-10-20T01:33:43.711Z,5.47
2022-10-20T01:36:16.426Z,4.97
2022-10-20T01:38:48.343Z,5.00
2022-10-20T01:41:23.935Z,4.95
2022-10-20T01:43:54.008Z,4.93
2022-10-20T01:46:25.909Z,6.60
2022-10-20T01:48:53.892Z,5.47
2022-10-20T01:51:21.659Z,4.05
2022-10-20T01:53:49.306Z,4.95
2022-10-20T01:56:21.007Z,6.13
2022-10-20T01:59:17.629Z,5.95
2022-10-20T02:02:01.155Z,4.15
2022-10-20T02:04:39.052Z,6.53
2022-10-20T02:07:13.131Z,7.28
2022-10-20T02:09:44.425Z,4.38
2022-10-20T02:12:19.610Z,8.10
2022-10-20T02:14:49.422Z,4.57
2022-10-20T02:17:19.915Z,5.55
2022-10-20T02:19:51.284Z,6.45
2022-10-20T02:22:20.820Z,3.97
2022-10-20T02:24:49.460Z,6.03
2022-10-20T02:27:20.035Z,5.95
2022-10-20T02:29:53.531Z,6.53
2022-10-20T02:32:22.779Z,6.38
2022-10-20T02:34:50.482Z,5.20
2022-10-20T02:37:18.276Z,7.65
2022-10-20T02:39:45.985Z,4.32
2022-10-20T02:42:13.852Z,4.88
2022-10-20T02:44:41.757Z,5.90
2022-10-20T02:47:10.762Z,5.60
2022-10-20T02:49:38.383Z,4.75
2022-10-20T02:52:06.141Z,6.75
2022-10-20T02:54:33.882Z,8.57
2022-10-20T02:57:01.698Z,5.80
2022-10-20T02:59:29.430Z,7.57
2022-10-20T03:01:57.224Z,4.10
2022-10-20T03:06:59.423Z,8.88
2022-10-20T03:09:27.140Z,3.58
2022-10-20T03:11:54.781Z,9.52
2022-10-20T03:14:22.506Z,7.15
2022-10-20T03:16:50.207Z,6.50
2022-10-20T03:19:18.082Z,8.57
2022-10-20T03:21:48.773Z,5.30
2022-10-20T03:24:16.646Z,5.28
2022-10-20T03:26:44.254Z,5.47
2022-10-20T03:29:11.950Z,7.13
2022-10-20T03:31:39.669Z,4.57
2022-10-20T03:34:07.388Z,8.18
2022-10-20T03:36:35.361Z,5.70
2022-10-20T03:39:04.445Z,5.20
2022-10-20T03:41:32.142Z,5.03
2022-10-20T03:43:59.801Z,5.13
2022-10-20T03:46:27.451Z,5.97
2022-10-20T03:48:55.228Z,5.68
2022-10-20T03:51:22.907Z,4.28
2022-10-20T03:53:50.543Z,4.10
2022-10-20T03:56:21.401Z,6.40
2022-10-20T03:58:49.454Z,3.88
2022-10-20T04:01:19.088Z,4.35
2022-10-20T04:03:46.938Z,5.22
2022-10-20T04:06:16.787Z,4.07
2022-10-20T04:08:44.581Z,5.55
2022-10-20T04:11:12.521Z,7.80
2022-10-20T04:13:41.613Z,5.85
2022-10-20T04:16:09.487Z,3.47
2022-10-20T04:18:37.116Z,4.97
2022-10-20T04:21:05.008Z,6.25
2022-10-20T04:23:32.696Z,5.47
2022-10-20T04:26:00.365Z,4.85
2022-10-20T04:28:28.093Z,5.20
2022-10-20T04:31:01.087Z,4.75
2022-10-20T04:33:28.751Z,5.00
2022-10-20T04:35:58.966Z,10.95
2022-10-20T04:38:27.140Z,5.30
2022-10-20T04:40:58.042Z,5.78
2022-10-20T04:43:28.697Z,6.45
2022-10-20T04:46:03.835Z,5.55
2022-10-20T04:48:35.049Z,11.27
2022-10-20T04:51:05.019Z,4.93
2022-10-20T04:53:32.674Z,5.43
2022-10-20T04:56:00.483Z,5.05
2022-10-20T04:58:28.648Z,6.47
2022-10-20T05:01:01.619Z,6.10
2022-10-20T05:03:29.405Z,7.32
2022-10-20T05:06:09.329Z,6.90
2022-10-20T05:08:37.095Z,4.80
2022-10-20T05:11:04.822Z,6.68
2022-10-20T05:13:32.485Z,4.80
2022-10-20T05:16:01.475Z,5.38
2022-10-20T05:18:29.454Z,8.80
2022-10-20T05:21:08.550Z,11.38
2022-10-20T05:23:37.378Z,7.60
2022-10-20T05:26:06.427Z,5.07
2022-10-20T05:28:34.401Z,7.82
2022-10-20T05:31:04.925Z,5.03
2022-10-20T05:33:32.627Z,4.18
2022-10-20T05:36:00.365Z,4.95
2022-10-20T05:38:28.317Z,4.53
2022-10-20T05:40:55.951Z,4.78
2022-10-20T05:43:23.877Z,4.53
2022-10-20T05:45:54.971Z,6.78
2022-10-20T05:48:23.962Z,6.97
2022-10-20T05:50:51.597Z,6.32
2022-10-20T05:53:19.682Z,4.88
2022-10-20T05:55:47.550Z,6.72
2022-10-20T05:58:17.592Z,4.65
2022-10-20T06:00:52.702Z,12.00
2022-10-20T06:03:23.671Z,6.65
2022-10-20T06:05:59.243Z,5.18
2022-10-20T06:08:27.060Z,5.55
2022-10-20T06:10:54.749Z,5.22
2022-10-20T06:13:22.381Z,7.80
2022-10-20T06:15:50.018Z,6.25
2022-10-20T06:18:17.660Z,8.50
2022-10-20T06:20:45.278Z,6.72
2022-10-20T06:23:14.308Z,6.72
2022-10-20T06:25:41.951Z,5.85
2022-10-20T06:28:09.558Z,7.28
2022-10-20T06:30:37.190Z,7.20
2022-10-20T06:33:04.940Z,6.25
2022-10-20T06:35:32.812Z,5.43
2022-10-20T06:38:00.452Z,5.78
2022-10-20T06:40:29.753Z,10.80
2022-10-20T06:42:57.756Z,8.18
2022-10-20T06:45:25.500Z,8.57
2022-10-20T06:47:53.327Z,7.93
2022-10-20T06:50:21.172Z,9.48
2022-10-20T06:52:48.874Z,6.80
2022-10-20T06:55:16.666Z,8.10
2022-10-20T06:57:45.644Z,9.02
2022-10-20T07:00:14.039Z,8.55
2022-10-20T07:02:41.776Z,10.00
2022-10-20T07:05:09.914Z,7.97
2022-10-20T07:07:37.542Z,7.80
2022-10-20T07:10:05.507Z,9.73
2022-10-20T07:12:33.129Z,7.45
2022-10-20T07:15:02.113Z,9.95
2022-10-20T07:17:29.758Z,10.80
2022-10-20T07:19:57.372Z,10.32
2022-10-20T07:22:25.063Z,7.85
2022-10-20T07:24:53.106Z,8.60
2022-10-20T07:27:20.740Z,8.70
2022-10-20T07:29:48.371Z,11.38
2022-10-20T07:32:17.348Z,12.38
2022-10-20T07:34:45.249Z,13.35
2022-10-20T07:37:12.859Z,9.52
2022-10-20T07:39:40.550Z,11.50
2022-10-20T07:42:08.202Z,12.23
2022-10-20T07:44:36.116Z,12.35
2022-10-20T07:47:03.726Z,11.85
2022-10-20T07:49:47.929Z,10.93
2022-10-20T07:52:16.483Z,14.07
2022-10-20T07:54:44.419Z,10.20
2022-10-20T07:57:12.449Z,11.02
2022-10-20T07:59:40.177Z,15.35
2022-10-20T08:02:08.322Z,11.57
2022-10-20T08:04:37.428Z,10.25
2022-10-20T08:07:05.191Z,9.07
2022-10-20T08:09:33.752Z,13.15
2022-10-20T08:12:01.710Z,12.85
2022-10-20T08:14:31.920Z,11.15
2022-10-20T08:17:02.264Z,16.23
2022-10-20T08:19:33.413Z,9.52
2022-10-20T08:22:02.887Z,13.38
2022-10-20T08:24:31.180Z,10.93
2022-10-20T08:26:59.158Z,10.18
2022-10-20T08:29:26.858Z,8.98
2022-10-20T08:31:54.486Z,12.30
2022-10-20T08:34:22.180Z,8.95
2022-10-20T08:36:49.807Z,8.40
2022-10-20T08:39:19.520Z,8.50
2022-10-20T08:44:40.721Z,11.43
2022-10-20T08:47:21.938Z,9.00
2022-10-20T08:49:49.615Z,11.68
2022-10-20T08:52:19.391Z,9.90
2022-10-20T08:54:51.261Z,10.48
2022-10-20T08:57:25.174Z,12.13
2022-10-20T08:59:54.918Z,12.65
2022-10-20T09:02:23.484Z,9.20
2022-10-20T09:04:54.404Z,10.18
2022-10-20T09:07:27.979Z,14.70
2022-10-20T09:10:05.668Z,12.95
2022-10-20T09:12:34.455Z,10.02
2022-10-20T09:15:02.701Z,9.77
2022-10-20T09:17:30.659Z,11.75
2022-10-20T09:20:00.350Z,9.63
2022-10-20T09:22:34.723Z,8.60
2022-10-20T09:25:05.742Z,14.65
2022-10-20T09:27:37.049Z,6.55
2022-10-20T09:30:16.555Z,11.30
2022-10-20T09:32:47.229Z,9.80
2022-10-20T09:35:24.947Z,9.20
2022-10-20T09:37:57.272Z,10.05
2022-10-20T09:40:27.660Z,11.55
2022-10-20T09:42:58.065Z,9.20
2022-10-20T09:45:29.486Z,9.40
2022-10-20T09:48:02.221Z,11.77
2022-10-20T09:50:33.656Z,8.98
2022-10-20T09:53:05.378Z,8.48
2022-10-20T09:55:37.609Z,7.65
2022-10-20T09:58:06.820Z,11.20
2022-10-20T10:00:38.198Z,10.15
2022-10-20T10:03:21.081Z,9.02
2022-10-20T10:05:51.206Z,7.63
2022-10-20T10:08:20.234Z,13.05
2022-10-20T10:11:00.820Z,10.43
2022-10-20T10:13:31.479Z,9.45
2022-10-20T10:16:06.243Z,12.77
2022-10-20T10:18:35.291Z,11.50
2022-10-20T10:21:06.523Z,14.90
2022-10-20T10:23:40.895Z,7.68
2022-10-20T10:26:45.612Z,10.70
2022-10-20T10:29:24.357Z,9.40
2022-10-20T10:31:57.627Z,14.77
2022-10-20T10:34:38.518Z,9.43
2022-10-20T10:37:06.672Z,10.60
2022-10-20T10:39:36.889Z,10.80
2022-10-20T10:42:37.404Z,9.55
2022-10-20T10:45:18.193Z,9.15
2022-10-20T10:48:18.820Z,6.82
2022-10-20T10:50:55.189Z,9.93
2022-10-20T10:53:33.125Z,10.35
2022-10-20T10:58:47.792Z,9.10
2022-10-20T11:01:40.919Z,12.45
2022-10-20T11:04:39.063Z,9.88
2022-10-20T11:07:12.669Z,12.20
2022-10-20T11:09:46.111Z,10.60
2022-10-20T11:12:28.968Z,9.48
2022-10-20T11:15:13.361Z,10.55
2022-10-20T11:17:54.055Z,9.20
2022-10-20T11:20:34.735Z,11.50
2022-10-20T11:23:59.536Z,13.75
2022-10-20T11:26:33.637Z,14.30
2022-10-20T11:29:03.978Z,9.52
2022-10-20T11:31:40.790Z,8.70
2022-10-20T11:34:15.273Z,11.40
2022-10-20T11:36:47.515Z,11.93
2022-10-20T11:39:23.405Z,9.35
2022-10-20T11:41:57.331Z,12.43
2022-10-20T11:44:31.856Z,14.27
2022-10-20T11:47:04.459Z,9.65
2022-10-20T11:49:34.072Z,12.40
2022-10-20T11:52:41.417Z,13.23
2022-10-20T11:55:36.727Z,10.05
2022-10-20T11:58:24.190Z,11.68
2022-10-20T12:01:02.854Z,10.27
2022-10-20T12:03:48.804Z,11.77
2022-10-20T12:06:46.701Z,10.88
2022-10-20T12:09:33.878Z,12.52
2022-10-20T12:12:04.547Z,14.63
2022-10-20T12:14:37.618Z,10.02
2022-10-20T12:17:20.442Z,11.32
2022-10-20T12:19:52.494Z,10.40
2022-10-20T12:22:43.182Z,9.90
2022-10-20T12:25:35.299Z,12.15
2022-10-20T12:28:34.620Z,12.48
2022-10-20T12:31:03.434Z,11.88
2022-10-20T12:33:43.269Z,10.65
2022-10-20T12:36:29.307Z,12.07
2022-10-20T12:39:14.253Z,8.95
2022-10-20T12:41:46.674Z,11.77
2022-10-20T12:47:06.544Z,10.45
2022-10-20T12:49:37.327Z,7.90
2022-10-20T12:52:17.062Z,9.60
2022-10-20T12:54:48.623Z,9.50
2022-10-20T12:57:29.208Z,10.07
2022-10-20T12:59:57.081Z,15.73
2022-10-20T13:02:46.867Z,10.15
2022-10-20T13:05:48.660Z,12.63
2022-10-20T13:08:29.383Z,11.80
2022-10-20T13:10:58.926Z,11.18
2022-10-20T13:13:50.523Z,10.15
2022-10-20T13:16:23.766Z,11.70
2022-10-20T13:18:54.381Z,8.80
2022-10-20T13:21:28.979Z,13.65
2022-10-20T13:24:21.989Z,12.88
2022-10-20T13:26:54.235Z,9.07
2022-10-20T13:29:26.434Z,8.27
2022-10-20T13:34:48.118Z,10.77
2022-10-20T13:37:30.264Z,16.00
2022-10-20T13:40:11.057Z,9.65
2022-10-20T13:42:48.774Z,6.97
2022-10-20T13:45:28.183Z,7.85
2022-10-20T13:48:10.009Z,7.40
2022-10-20T13:50:41.402Z,8.63
2022-10-20T13:53:20.555Z,7.05
2022-10-20T13:56:00.307Z,8.02
2022-10-20T13:58:28.356Z,8.75
2022-10-20T14:01:02.465Z,7.82
2022-10-20T14:03:32.323Z,7.10
2022-10-20T14:06:00.228Z,10.02
2022-10-20T14:08:28.057Z,6.13
2022-10-20T14:11:00.428Z,11.80
2022-10-20T14:13:31.499Z,10.38
2022-10-20T14:16:00.898Z,8.43
2022-10-20T14:18:31.561Z,6.90
2022-10-20T14:21:02.608Z,8.63
2022-10-20T14:23:35.894Z,5.72
2022-10-20T14:26:07.490Z,6.72
2022-10-20T14:28:36.977Z,10.10
2022-10-20T14:31:05.480Z,8.30
2022-10-20T14:33:36.018Z,8.75
2022-10-20T14:36:05.280Z,6.63
2022-10-20T14:38:37.811Z,7.68
2022-10-20T14:41:09.429Z,6.75
2022-10-20T14:43:41.290Z,8.90
2022-10-20T14:46:12.832Z,9.13
2022-10-20T14:48:44.498Z,11.80
2022-10-20T14:51:34.768Z,6.72
2022-10-20T14:54:26.321Z,10.48
2022-10-20T14:56:57.046Z,5.20
2022-10-20T14:59:26.916Z,10.85
2022-10-20T15:02:02.702Z,6.63
2022-10-20T15:04:33.473Z,8.07
2022-10-20T15:07:07.314Z,7.68
2022-10-20T15:09:40.741Z,6.95
2022-10-20T15:12:17.075Z,5.40
2022-10-20T15:14:47.902Z,6.45
2022-10-20T15:17:35.685Z,5.82
2022-10-20T15:20:37.267Z,6.20
2022-10-20T15:23:07.091Z,6.25
2022-10-20T15:25:42.493Z,12.80
2022-10-20T15:28:23.211Z,5.15
2022-10-20T15:30:51.166Z,8.10
2022-10-20T15:33:18.872Z,8.35
2022-10-20T15:35:47.620Z,5.78
2022-10-20T15:38:15.865Z,6.45
2022-10-20T15:40:44.362Z,7.45
2022-10-20T15:43:13.858Z,6.47
2022-10-20T15:45:45.945Z,11.50
2022-10-20T15:48:13.608Z,7.40
2022-10-20T15:50:41.632Z,5.65
2022-10-20T15:53:11.806Z,8.05
2022-10-20T15:55:42.150Z,5.07
2022-10-20T15:58:09.834Z,6.43
2022-10-20T16:00:37.883Z,5.68
2022-10-20T16:03:07.584Z,5.10
2022-10-20T16:05:35.334Z,6.55
2022-10-20T16:08:03.055Z,6.95
2022-10-20T16:10:30.726Z,7.57
2022-10-20T16:12:58.619Z,8.20
2022-10-20T16:15:30.193Z,10.27
2022-10-20T16:17:58.970Z,8.65
2022-10-20T16:20:27.984Z,8.75
2022-10-20T16:22:55.683Z,5.90
2022-10-20T16:25:23.435Z,9.98
2022-10-20T16:27:51.249Z,8.05
2022-10-20T16:30:19.096Z,9.15
2022-10-20T16:32:46.750Z,5.53
2022-10-20T16:35:14.393Z,10.73
2022-10-20T16:37:44.199Z,6.22
2022-10-20T16:40:11.890Z,5.80
2022-10-20T16:42:39.705Z,5.93
2022-10-20T16:45:08.500Z,7.55
2022-10-20T16:47:36.618Z,7.35
2022-10-20T16:50:05.222Z,7.60
2022-10-20T16:52:33.111Z,6.25
2022-10-20T16:55:09.809Z,6.80
2022-10-20T16:57:40.977Z,7.85
2022-10-20T17:00:10.600Z,5.65
2022-10-20T17:02:40.530Z,8.70
2022-10-20T17:05:09.969Z,6.50
2022-10-20T17:07:38.571Z,7.82
2022-10-20T17:10:08.909Z,8.82
2022-10-20T17:12:37.283Z,6.10
2022-10-20T17:15:06.300Z,6.78
2022-10-20T17:17:35.427Z,6.82
2022-10-20T17:20:04.367Z,7.10
2022-10-20T17:22:33.411Z,5.88
2022-10-20T17:25:01.727Z,8.60
2022-10-20T17:27:35.286Z,7.03
2022-10-20T17:30:12.239Z,9.25
2022-10-20T17:32:43.124Z,7.95
2022-10-20T17:35:13.057Z,8.70
2022-10-20T17:37:42.465Z,7.63
2022-10-20T17:40:35.296Z,6.28
2022-10-20T17:43:28.652Z,7.80
2022-10-20T17:46:21.488Z,6.15
2022-10-20T17:53:22.762Z,7.00
2022-10-20T17:56:41.724Z,6.97
2022-10-20T17:59:22.752Z,5.90
2022-10-20T18:01:50.823Z,5.30
2022-10-20T18:04:20.156Z,7.00
2022-10-20T18:06:55.744Z,6.70
2022-10-20T18:09:26.870Z,8.20
2022-10-20T18:11:56.087Z,6.30
2022-10-20T18:14:27.637Z,7.15
2022-10-20T18:16:56.471Z,6.07
2022-10-20T18:19:25.609Z,9.07
2022-10-20T18:21:55.555Z,10.50
2022-10-20T18:24:25.030Z,5.63
2022-10-20T18:26:54.347Z,7.43
2022-10-20T18:29:27.270Z,12.27
2022-10-20T18:31:56.504Z,11.07
2022-10-20T18:34:25.502Z,8.80
2022-10-20T18:37:04.531Z,8.60
2022-10-20T18:39:32.849Z,7.80
2022-10-20T18:42:01.066Z,7.82
2022-10-20T18:44:30.998Z,10.57
2022-10-20T18:46:59.798Z,8.43
2022-10-20T18:49:27.944Z,9.05
2022-10-20T18:51:55.792Z,9.68
2022-10-20T18:54:24.643Z,10.23
2022-10-20T18:56:52.819Z,7.60
2022-10-20T18:59:23.147Z,10.38
2022-10-20T19:01:52.742Z,7.75
2022-10-20T19:04:21.188Z,12.20
2022-10-20T19:06:50.146Z,7.82
2022-10-20T19:09:19.613Z,8.93
2022-10-20T19:14:21.826Z,8.95
2022-10-20T19:16:50.299Z,10.75
2022-10-20T19:19:19.734Z,9.52
2022-10-20T19:21:47.818Z,10.80
2022-10-20T19:24:17.499Z,11.02
2022-10-20T19:26:57.207Z,12.95
2022-10-20T19:29:34.086Z,9.55
2022-10-20T19:32:04.341Z,12.45
2022-10-20T19:34:36.172Z,10.23
2022-10-20T19:37:05.568Z,13.65
2022-10-20T19:39:35.819Z,16.83
2022-10-20T19:42:05.398Z,18.48
2022-10-20T19:44:33.622Z,16.00
2022-10-20T19:47:02.071Z,11.88
2022-10-20T19:49:30.567Z,9.80
2022-10-20T19:52:01.143Z,7.70
2022-10-20T19:54:29.842Z,12.90
2022-10-20T19:56:58.125Z,7.88
2022-10-20T19:59:26.547Z,9.35
2022-10-20T20:01:54.628Z,13.75
2022-10-20T20:04:25.655Z,10.63
2022-10-20T20:07:01.025Z,9.52
2022-10-20T20:09:32.366Z,10.43
2022-10-20T20:12:01.118Z,10.60
2022-10-20T20:14:32.097Z,13.15
2022-10-20T20:17:02.143Z,11.75
2022-10-20T20:19:34.592Z,13.85
2022-10-20T20:22:04.758Z,13.52
2022-10-20T20:24:35.134Z,10.27
2022-10-20T20:27:03.078Z,12.13
2022-10-20T20:29:31.253Z,13.73
2022-10-20T20:31:59.204Z,11.90
2022-10-20T20:34:27.408Z,16.35
2022-10-20T20:37:02.234Z,10.95
2022-10-20T20:39:34.223Z,10.95
2022-10-20T20:42:06.108Z,11.63
2022-10-20T20:44:35.671Z,11.65
2022-10-20T20:47:06.465Z,11.15
2022-10-20T20:49:40.519Z,11.50
2022-10-20T20:52:14.420Z,11.68
2022-10-20T20:54:43.707Z,11.27
2022-10-20T20:57:12.712Z,12.63
2022-10-20T20:59:40.375Z,10.13
2022-10-20T21:02:08.034Z,12.40
2022-10-20T21:04:36.854Z,10.75
2022-10-20T21:07:04.551Z,10.23
2022-10-20T21:09:32.431Z,14.68
2022-10-20T21:12:00.111Z,12.43
2022-10-20T21:14:29.256Z,13.18
2022-10-20T21:16:56.931Z,12.13
2022-10-20T21:19:24.561Z,10.82
2022-10-20T21:21:57.265Z,12.07
2022-10-20T21:24:25.992Z,10.43
2022-10-20T21:26:53.845Z,13.45
2022-10-20T21:29:21.512Z,16.88
2022-10-20T21:31:50.542Z,12.63
2022-10-20T21:34:18.146Z,14.02
2022-10-20T21:36:45.793Z,11.65
2022-10-20T21:39:16.347Z,11.88
2022-10-20T21:41:45.635Z,9.27
2022-10-20T21:44:14.501Z,10.60
2022-10-20T21:46:49.162Z,7.45
2022-10-20T21:49:20.509Z,10.80
2022-10-20T21:51:52.177Z,10.63
2022-10-20T21:56:55.127Z,14.63
2022-10-20T21:59:24.886Z,12.57
2022-10-20T22:01:54.319Z,9.90
2022-10-20T22:04:25.460Z,8.95
2022-10-20T22:06:54.857Z,16.55
2022-10-20T22:09:23.670Z,13.13
2022-10-20T22:11:52.878Z,13.68
2022-10-20T22:14:20.558Z,11.82
2022-10-20T22:16:48.651Z,10.93
2022-10-20T22:19:19.162Z,16.45
2022-10-20T22:21:49.909Z,12.68
2022-10-20T22:24:18.520Z,12.77
2022-10-20T22:26:46.963Z,14.45
2022-10-20T22:29:14.635Z,11.52
2022-10-20T22:31:42.443Z,12.43
2022-10-20T22:34:10.847Z,13.30
2022-10-20T22:36:39.324Z,12.48
2022-10-20T22:39:09.160Z,14.05
2022-10-20T22:41:36.926Z,12.05
2022-10-20T22:44:04.940Z,12.07
2022-10-20T22:46:32.576Z,12.73
2022-10-20T22:49:00.321Z,10.65
2022-10-20T22:51:28.110Z,15.70
2022-10-20T22:53:55.821Z,10.45
2022-10-20T22:56:24.831Z,12.30
2022-10-20T22:58:53.506Z,13.25
2022-10-20T23:01:23.601Z,12.45
2022-10-20T23:03:52.374Z,15.75
2022-10-20T23:06:23.738Z,15.52
2022-10-20T23:08:53.735Z,13.18
2022-10-20T23:11:22.446Z,10.88
2022-10-20T23:13:51.952Z,11.75
2022-10-20T23:16:20.071Z,15.40
2022-10-20T23:18:47.990Z,14.85
2022-10-20T23:21:16.088Z,12.23
2022-10-20T23:23:44.400Z,11.45
2022-10-20T23:26:12.921Z,12.13
2022-10-20T23:28:40.557Z,14.15
2022-10-20T23:31:12.080Z,11.63
2022-10-20T23:33:40.872Z,14.18
2022-10-20T23:36:09.432Z,14.57
2022-10-20T23:38:37.356Z,12.98
2022-10-20T23:41:05.552Z,14.55
2022-10-20T23:43:33.652Z,11.52
2022-10-20T23:46:01.719Z,15.05
2022-10-20T23:48:31.021Z,14.93
2022-10-20T23:50:59.313Z,12.93
2022-10-20T23:53:27.704Z,11.82
2022-10-20T23:55:55.415Z,17.33
2022-10-20T23:58:23.623Z,16.38
